sensor_id;sensor_type;location;lat;lon;timestamp;P1;durP1;ratioP1;P2;durP2;ratioP2
29358;SDS011;16347;53.232;6.556;2024-02-15T00:01:35;85.00;;;22.20;;
29358;SDS011;16347;53.232;6.556;2024-02-15T00:04:03;72.57;;;22.48;;
29358;SDS011;16347;53.232;6.556;2024-02-15T00:06:32;66.47;;;21.13;;
29358;SDS011;16347;53.232;6.556;2024-02-15T00:09:00;68.60;;;21.30;;
29358;SDS011;16347;53.232;6.556;2024-02-15T00:11:28;80.80;;;22.38;;
29358;SDS011;16347;53.232;6.556;2024-02-15T00:13:56;66.75;;;20.58;;
29358;SDS011;16347;53.232;6.556;2024-02-15T00:16:25;78.20;;;21.98;;
29358;SDS011;16347;53.232;6.556;2024-02-15T00:18:53;79.22;;;22.42;;
29358;SDS011;16347;53.232;6.556;2024-02-15T00:21:23;66.72;;;21.40;;
29358;SDS011;16347;53.232;6.556;2024-02-15T00:23:51;68.60;;;21.77;;
29358;SDS011;16347;53.232;6.556;2024-02-15T00:26:22;62.90;;;21.50;;
29358;SDS011;16347;53.232;6.556;2024-02-15T00:28:50;72.25;;;21.80;;
29358;SDS011;16347;53.232;6.556;2024-02-15T00:31:17;88.57;;;23.65;;
29358;SDS011;16347;53.232;6.556;2024-02-15T00:33:47;69.10;;;21.50;;
29358;SDS011;16347;53.232;6.556;2024-02-15T00:36:15;60.53;;;21.40;;
29358;SDS011;16347;53.232;6.556;2024-02-15T00:38:44;70.82;;;21.55;;
29358;SDS011;16347;53.232;6.556;2024-02-15T00:41:12;65.93;;;22.20;;
29358;SDS011;16347;53.232;6.556;2024-02-15T00:43:40;71.25;;;23.55;;
29358;SDS011;16347;53.232;6.556;2024-02-15T00:46:07;71.47;;;22.48;;
29358;SDS011;16347;53.232;6.556;2024-02-15T00:48:35;67.82;;;21.65;;
29358;SDS011;16347;53.232;6.556;2024-02-15T00:51:05;71.38;;;21.52;;
29358;SDS011;16347;53.232;6.556;2024-02-15T00:53:33;65.32;;;22.73;;
29358;SDS011;16347;53.232;6.556;2024-02-15T00:56:00;70.55;;;21.17;;
29358;SDS011;16347;53.232;6.556;2024-02-15T00:58:28;69.22;;;21.50;;
29358;SDS011;16347;53.232;6.556;2024-02-15T01:00:57;55.78;;;18.98;;
29358;SDS011;16347;53.232;6.556;2024-02-15T01:03:26;65.72;;;20.38;;
29358;SDS011;16347;53.232;6.556;2024-02-15T01:05:53;64.55;;;20.70;;
29358;SDS011;16347;53.232;6.556;2024-02-15T01:08:23;81.50;;;20.88;;
29358;SDS011;16347;53.232;6.556;2024-02-15T01:10:51;58.38;;;19.98;;
29358;SDS011;16347;53.232;6.556;2024-02-15T01:13:20;72.93;;;21.00;;
29358;SDS011;16347;53.232;6.556;2024-02-15T01:15:48;67.63;;;21.73;;
29358;SDS011;16347;53.232;6.556;2024-02-15T01:18:16;68.68;;;21.00;;
29358;SDS011;16347;53.232;6.556;2024-02-15T01:20:44;60.38;;;20.60;;
29358;SDS011;16347;53.232;6.556;2024-02-15T01:23:12;65.57;;;21.98;;
29358;SDS011;16347;53.232;6.556;2024-02-15T01:25:42;80.82;;;23.38;;
29358;SDS011;16347;53.232;6.556;2024-02-15T01:28:09;64.47;;;22.40;;
29358;SDS011;16347;53.232;6.556;2024-02-15T01:30:37;72.63;;;21.58;;
29358;SDS011;16347;53.232;6.556;2024-02-15T01:33:05;75.80;;;23.00;;
29358;SDS011;16347;53.232;6.556;2024-02-15T01:35:33;63.38;;;21.85;;
29358;SDS011;16347;53.232;6.556;2024-02-15T01:38:02;63.58;;;22.80;;
29358;SDS011;16347;53.232;6.556;2024-02-15T01:40:30;61.58;;;20.52;;
29358;SDS011;16347;53.232;6.556;2024-02-15T01:43:00;60.75;;;21.40;;
29358;SDS011;16347;53.232;6.556;2024-02-15T01:45:28;64.88;;;19.98;;
29358;SDS011;16347;53.232;6.556;2024-02-15T01:47:56;58.78;;;19.65;;
29358;SDS011;16347;53.232;6.556;2024-02-15T01:50:25;57.08;;;19.65;;
29358;SDS011;16347;53.232;6.556;2024-02-15T01:52:55;56.72;;;20.48;;
29358;SDS011;16347;53.232;6.556;2024-02-15T01:55:25;48.50;;;20.00;;
29358;SDS011;16347;53.232;6.556;2024-02-15T01:57:53;71.07;;;20.33;;
29358;SDS011;16347;53.232;6.556;2024-02-15T02:00:23;54.35;;;18.90;;
29358;SDS011;16347;53.232;6.556;2024-02-15T02:02:51;49.88;;;17.25;;
29358;SDS011;16347;53.232;6.556;2024-02-15T02:05:26;53.45;;;17.95;;
29358;SDS011;16347;53.232;6.556;2024-02-15T02:07:56;50.63;;;17.63;;
29358;SDS011;16347;53.232;6.556;2024-02-15T02:10:25;57.97;;;16.55;;
29358;SDS011;16347;53.232;6.556;2024-02-15T02:12:58;48.28;;;16.35;;
29358;SDS011;16347;53.232;6.556;2024-02-15T02:15:28;51.30;;;17.02;;
29358;SDS011;16347;53.232;6.556;2024-02-15T02:17:57;47.83;;;17.30;;
29358;SDS011;16347;53.232;6.556;2024-02-15T02:20:26;39.45;;;16.17;;
29358;SDS011;16347;53.232;6.556;2024-02-15T02:22:56;40.80;;;16.58;;
29358;SDS011;16347;53.232;6.556;2024-02-15T02:25:30;37.15;;;14.77;;
29358;SDS011;16347;53.232;6.556;2024-02-15T02:27:58;45.13;;;15.88;;
29358;SDS011;16347;53.232;6.556;2024-02-15T02:30:26;48.58;;;15.32;;
29358;SDS011;16347;53.232;6.556;2024-02-15T02:32:56;42.88;;;14.68;;
29358;SDS011;16347;53.232;6.556;2024-02-15T02:35:25;33.78;;;14.30;;
29358;SDS011;16347;53.232;6.556;2024-02-15T02:37:54;39.05;;;15.05;;
29358;SDS011;16347;53.232;6.556;2024-02-15T02:40:22;38.35;;;13.77;;
29358;SDS011;16347;53.232;6.556;2024-02-15T02:42:52;38.95;;;13.65;;
29358;SDS011;16347;53.232;6.556;2024-02-15T02:45:22;41.05;;;14.27;;
29358;SDS011;16347;53.232;6.556;2024-02-15T02:47:51;34.58;;;13.18;;
29358;SDS011;16347;53.232;6.556;2024-02-15T02:50:20;39.45;;;13.15;;
29358;SDS011;16347;53.232;6.556;2024-02-15T02:52:50;40.80;;;13.48;;
29358;SDS011;16347;53.232;6.556;2024-02-15T02:55:18;38.97;;;12.85;;
29358;SDS011;16347;53.232;6.556;2024-02-15T02:57:47;35.22;;;13.20;;
29358;SDS011;16347;53.232;6.556;2024-02-15T03:00:17;31.52;;;12.65;;
29358;SDS011;16347;53.232;6.556;2024-02-15T03:02:46;40.15;;;12.57;;
29358;SDS011;16347;53.232;6.556;2024-02-15T03:05:15;34.72;;;11.10;;
29358;SDS011;16347;53.232;6.556;2024-02-15T03:07:43;22.83;;;10.82;;
29358;SDS011;16347;53.232;6.556;2024-02-15T03:10:11;30.55;;;11.90;;
29358;SDS011;16347;53.232;6.556;2024-02-15T03:12:41;38.65;;;12.88;;
29358;SDS011;16347;53.232;6.556;2024-02-15T03:15:13;35.50;;;11.02;;
29358;SDS011;16347;53.232;6.556;2024-02-15T03:17:43;35.45;;;11.43;;
29358;SDS011;16347;53.232;6.556;2024-02-15T03:20:15;34.05;;;11.40;;
29358;SDS011;16347;53.232;6.556;2024-02-15T03:22:52;36.70;;;10.70;;
29358;SDS011;16347;53.232;6.556;2024-02-15T03:25:22;39.25;;;10.82;;
29358;SDS011;16347;53.232;6.556;2024-02-15T03:27:51;35.60;;;10.77;;
29358;SDS011;16347;53.232;6.556;2024-02-15T03:30:20;33.70;;;11.70;;
29358;SDS011;16347;53.232;6.556;2024-02-15T03:32:51;37.40;;;11.20;;
29358;SDS011;16347;53.232;6.556;2024-02-15T03:35:20;36.45;;;11.27;;
29358;SDS011;16347;53.232;6.556;2024-02-15T03:37:50;38.17;;;11.38;;
29358;SDS011;16347;53.232;6.556;2024-02-15T03:40:19;38.97;;;10.68;;
29358;SDS011;16347;53.232;6.556;2024-02-15T03:42:48;33.45;;;10.23;;
29358;SDS011;16347;53.232;6.556;2024-02-15T03:45:17;48.42;;;12.60;;
29358;SDS011;16347;53.232;6.556;2024-02-15T03:47:45;45.95;;;11.88;;
29358;SDS011;16347;53.232;6.556;2024-02-15T03:50:15;34.50;;;11.88;;
29358;SDS011;16347;53.232;6.556;2024-02-15T03:52:45;44.50;;;12.50;;
29358;SDS011;16347;53.232;6.556;2024-02-15T03:55:13;54.75;;;12.13;;
29358;SDS011;16347;53.232;6.556;2024-02-15T03:57:42;44.42;;;11.05;;
29358;SDS011;16347;53.232;6.556;2024-02-15T04:00:12;35.50;;;10.80;;
29358;SDS011;16347;53.232;6.556;2024-02-15T04:02:48;45.28;;;12.13;;
29358;SDS011;16347;53.232;6.556;2024-02-15T04:05:18;53.25;;;13.20;;
29358;SDS011;16347;53.232;6.556;2024-02-15T04:07:49;56.95;;;13.45;;
29358;SDS011;16347;53.232;6.556;2024-02-15T04:10:19;44.70;;;12.45;;
29358;SDS011;16347;53.232;6.556;2024-02-15T04:12:47;40.20;;;12.98;;
29358;SDS011;16347;53.232;6.556;2024-02-15T04:15:15;47.50;;;12.23;;
29358;SDS011;16347;53.232;6.556;2024-02-15T04:17:44;49.20;;;12.43;;
29358;SDS011;16347;53.232;6.556;2024-02-15T04:20:13;44.35;;;12.50;;
29358;SDS011;16347;53.232;6.556;2024-02-15T04:22:44;54.38;;;14.48;;
29358;SDS011;16347;53.232;6.556;2024-02-15T04:25:13;57.05;;;14.27;;
29358;SDS011;16347;53.232;6.556;2024-02-15T04:27:44;52.92;;;14.95;;
29358;SDS011;16347;53.232;6.556;2024-02-15T04:30:13;51.33;;;15.18;;
29358;SDS011;16347;53.232;6.556;2024-02-15T04:32:43;52.58;;;14.77;;
29358;SDS011;16347;53.232;6.556;2024-02-15T04:35:11;53.25;;;14.88;;
29358;SDS011;16347;53.232;6.556;2024-02-15T04:37:41;59.35;;;15.02;;
29358;SDS011;16347;53.232;6.556;2024-02-15T04:40:10;54.35;;;14.48;;
29358;SDS011;16347;53.232;6.556;2024-02-15T04:42:40;44.15;;;15.27;;
29358;SDS011;16347;53.232;6.556;2024-02-15T04:45:11;47.40;;;15.18;;
29358;SDS011;16347;53.232;6.556;2024-02-15T04:47:42;45.25;;;15.60;;
29358;SDS011;16347;53.232;6.556;2024-02-15T04:50:13;45.33;;;15.13;;
29358;SDS011;16347;53.232;6.556;2024-02-15T04:52:41;52.33;;;14.55;;
29358;SDS011;16347;53.232;6.556;2024-02-15T04:55:13;48.85;;;16.33;;
29358;SDS011;16347;53.232;6.556;2024-02-15T04:57:42;49.00;;;15.82;;
29358;SDS011;16347;53.232;6.556;2024-02-15T05:00:10;55.42;;;16.67;;
29358;SDS011;16347;53.232;6.556;2024-02-15T05:02:40;52.75;;;16.95;;
29358;SDS011;16347;53.232;6.556;2024-02-15T05:05:10;53.30;;;15.90;;
29358;SDS011;16347;53.232;6.556;2024-02-15T05:07:40;43.15;;;17.40;;
29358;SDS011;16347;53.232;6.556;2024-02-15T05:10:10;51.20;;;16.20;;
29358;SDS011;16347;53.232;6.556;2024-02-15T05:12:40;48.92;;;16.77;;
29358;SDS011;16347;53.232;6.556;2024-02-15T05:15:09;42.35;;;17.77;;
29358;SDS011;16347;53.232;6.556;2024-02-15T05:17:39;46.50;;;17.27;;
29358;SDS011;16347;53.232;6.556;2024-02-15T05:20:11;44.58;;;18.02;;
29358;SDS011;16347;53.232;6.556;2024-02-15T05:22:40;42.22;;;18.50;;
29358;SDS011;16347;53.232;6.556;2024-02-15T05:25:16;44.95;;;17.80;;
29358;SDS011;16347;53.232;6.556;2024-02-15T05:27:52;42.58;;;18.35;;
29358;SDS011;16347;53.232;6.556;2024-02-15T05:30:22;53.20;;;19.75;;
29358;SDS011;16347;53.232;6.556;2024-02-15T05:32:51;48.40;;;18.52;;
29358;SDS011;16347;53.232;6.556;2024-02-15T05:35:21;45.28;;;19.73;;
29358;SDS011;16347;53.232;6.556;2024-02-15T05:37:50;44.80;;;20.58;;
29358;SDS011;16347;53.232;6.556;2024-02-15T05:40:19;44.03;;;18.85;;
29358;SDS011;16347;53.232;6.556;2024-02-15T05:42:48;52.47;;;21.60;;
29358;SDS011;16347;53.232;6.556;2024-02-15T05:45:30;42.97;;;19.02;;
29358;SDS011;16347;53.232;6.556;2024-02-15T05:48:04;45.00;;;19.45;;
29358;SDS011;16347;53.232;6.556;2024-02-15T05:50:35;59.53;;;21.33;;
29358;SDS011;16347;53.232;6.556;2024-02-15T05:53:04;48.47;;;21.23;;
29358;SDS011;16347;53.232;6.556;2024-02-15T05:55:34;47.58;;;21.95;;
29358;SDS011;16347;53.232;6.556;2024-02-15T05:58:04;54.70;;;21.45;;
29358;SDS011;16347;53.232;6.556;2024-02-15T06:00:33;56.05;;;22.17;;
29358;SDS011;16347;53.232;6.556;2024-02-15T06:03:02;45.85;;;21.92;;
29358;SDS011;16347;53.232;6.556;2024-02-15T06:05:30;49.70;;;23.23;;
29358;SDS011;16347;53.232;6.556;2024-02-15T06:07:58;48.58;;;22.35;;
29358;SDS011;16347;53.232;6.556;2024-02-15T06:10:26;49.50;;;23.48;;
29358;SDS011;16347;53.232;6.556;2024-02-15T06:12:56;51.03;;;22.42;;
29358;SDS011;16347;53.232;6.556;2024-02-15T06:15:24;51.83;;;24.00;;
29358;SDS011;16347;53.232;6.556;2024-02-15T06:17:53;48.13;;;24.02;;
29358;SDS011;16347;53.232;6.556;2024-02-15T06:20:21;56.40;;;24.80;;
29358;SDS011;16347;53.232;6.556;2024-02-15T06:22:50;51.65;;;23.95;;
29358;SDS011;16347;53.232;6.556;2024-02-15T06:25:19;51.80;;;25.33;;
29358;SDS011;16347;53.232;6.556;2024-02-15T06:27:49;51.45;;;25.70;;
29358;SDS011;16347;53.232;6.556;2024-02-15T06:30:24;50.97;;;24.77;;
29358;SDS011;16347;53.232;6.556;2024-02-15T06:33:07;50.30;;;25.08;;
29358;SDS011;16347;53.232;6.556;2024-02-15T06:36:05;67.18;;;26.48;;
29358;SDS011;16347;53.232;6.556;2024-02-15T06:38:51;56.97;;;26.50;;
29358;SDS011;16347;53.232;6.556;2024-02-15T06:41:37;50.63;;;25.67;;
29358;SDS011;16347;53.232;6.556;2024-02-15T06:44:05;57.80;;;26.83;;
29358;SDS011;16347;53.232;6.556;2024-02-15T06:46:34;53.78;;;27.45;;
29358;SDS011;16347;53.232;6.556;2024-02-15T06:49:03;73.00;;;29.30;;
29358;SDS011;16347;53.232;6.556;2024-02-15T06:51:32;61.67;;;28.15;;
29358;SDS011;16347;53.232;6.556;2024-02-15T06:54:00;55.45;;;29.13;;
29358;SDS011;16347;53.232;6.556;2024-02-15T06:56:29;59.40;;;28.63;;
29358;SDS011;16347;53.232;6.556;2024-02-15T06:58:57;58.83;;;28.73;;
29358;SDS011;16347;53.232;6.556;2024-02-15T07:01:26;59.65;;;28.52;;
29358;SDS011;16347;53.232;6.556;2024-02-15T07:03:55;71.88;;;30.35;;
29358;SDS011;16347;53.232;6.556;2024-02-15T07:06:26;61.30;;;30.35;;
29358;SDS011;16347;53.232;6.556;2024-02-15T07:08:55;63.22;;;30.67;;
29358;SDS011;16347;53.232;6.556;2024-02-15T07:11:24;61.58;;;30.02;;
29358;SDS011;16347;53.232;6.556;2024-02-15T07:13:52;55.97;;;28.65;;
29358;SDS011;16347;53.232;6.556;2024-02-15T07:16:21;65.30;;;29.63;;
29358;SDS011;16347;53.232;6.556;2024-02-15T07:18:49;59.17;;;30.17;;
29358;SDS011;16347;53.232;6.556;2024-02-15T07:21:19;60.70;;;29.85;;
29358;SDS011;16347;53.232;6.556;2024-02-15T07:23:53;62.67;;;28.35;;
29358;SDS011;16347;53.232;6.556;2024-02-15T07:26:23;53.97;;;29.23;;
29358;SDS011;16347;53.232;6.556;2024-02-15T07:28:53;61.95;;;29.65;;
29358;SDS011;16347;53.232;6.556;2024-02-15T07:31:23;69.78;;;29.58;;
29358;SDS011;16347;53.232;6.556;2024-02-15T07:33:55;62.70;;;30.20;;
29358;SDS011;16347;53.232;6.556;2024-02-15T07:36:24;60.45;;;28.70;;
29358;SDS011;16347;53.232;6.556;2024-02-15T07:38:55;67.68;;;29.83;;
29358;SDS011;16347;53.232;6.556;2024-02-15T07:41:28;61.13;;;29.23;;
29358;SDS011;16347;53.232;6.556;2024-02-15T07:43:57;70.82;;;30.15;;
29358;SDS011;16347;53.232;6.556;2024-02-15T07:46:27;60.30;;;28.63;;
29358;SDS011;16347;53.232;6.556;2024-02-15T07:48:55;70.97;;;30.42;;
29358;SDS011;16347;53.232;6.556;2024-02-15T07:51:24;59.30;;;30.20;;
29358;SDS011;16347;53.232;6.556;2024-02-15T07:53:52;66.03;;;28.92;;
29358;SDS011;16347;53.232;6.556;2024-02-15T07:56:21;64.97;;;28.42;;
29358;SDS011;16347;53.232;6.556;2024-02-15T07:58:49;55.40;;;27.70;;
29358;SDS011;16347;53.232;6.556;2024-02-15T08:01:20;60.47;;;29.70;;
29358;SDS011;16347;53.232;6.556;2024-02-15T08:03:50;63.17;;;28.80;;
29358;SDS011;16347;53.232;6.556;2024-02-15T08:06:20;60.72;;;28.90;;
29358;SDS011;16347;53.232;6.556;2024-02-15T08:08:52;56.72;;;27.58;;
29358;SDS011;16347;53.232;6.556;2024-02-15T08:11:21;66.70;;;28.77;;
29358;SDS011;16347;53.232;6.556;2024-02-15T08:13:50;68.30;;;28.85;;
29358;SDS011;16347;53.232;6.556;2024-02-15T08:16:21;62.53;;;28.20;;
29358;SDS011;16347;53.232;6.556;2024-02-15T08:18:50;62.80;;;27.73;;
29358;SDS011;16347;53.232;6.556;2024-02-15T08:21:25;57.75;;;29.33;;
29358;SDS011;16347;53.232;6.556;2024-02-15T08:26:24;52.85;;;26.27;;
29358;SDS011;16347;53.232;6.556;2024-02-15T08:28:52;57.33;;;27.13;;
29358;SDS011;16347;53.232;6.556;2024-02-15T08:31:22;50.38;;;25.67;;
29358;SDS011;16347;53.232;6.556;2024-02-15T08:33:51;56.42;;;26.15;;
29358;SDS011;16347;53.232;6.556;2024-02-15T08:36:19;60.30;;;25.80;;
29358;SDS011;16347;53.232;6.556;2024-02-15T08:38:48;51.80;;;24.65;;
29358;SDS011;16347;53.232;6.556;2024-02-15T08:41:17;48.65;;;22.83;;
29358;SDS011;16347;53.232;6.556;2024-02-15T08:43:48;51.65;;;24.38;;
29358;SDS011;16347;53.232;6.556;2024-02-15T08:46:17;50.22;;;24.55;;
29358;SDS011;16347;53.232;6.556;2024-02-15T08:48:45;48.15;;;24.13;;
29358;SDS011;16347;53.232;6.556;2024-02-15T08:51:14;47.97;;;22.20;;
29358;SDS011;16347;53.232;6.556;2024-02-15T08:53:42;45.92;;;21.95;;
29358;SDS011;16347;53.232;6.556;2024-02-15T08:56:11;46.80;;;22.90;;
29358;SDS011;16347;53.232;6.556;2024-02-15T08:58:38;46.67;;;21.13;;
29358;SDS011;16347;53.232;6.556;2024-02-15T09:01:08;57.17;;;22.42;;
29358;SDS011;16347;53.232;6.556;2024-02-15T09:03:37;44.47;;;21.55;;
29358;SDS011;16347;53.232;6.556;2024-02-15T09:06:05;43.30;;;21.75;;
29358;SDS011;16347;53.232;6.556;2024-02-15T09:08:34;46.75;;;21.98;;
29358;SDS011;16347;53.232;6.556;2024-02-15T09:11:02;40.33;;;20.65;;
29358;SDS011;16347;53.232;6.556;2024-02-15T09:13:32;44.97;;;20.58;;
29358;SDS011;16347;53.232;6.556;2024-02-15T09:16:04;37.88;;;20.65;;
29358;SDS011;16347;53.232;6.556;2024-02-15T09:18:33;53.08;;;21.08;;
29358;SDS011;16347;53.232;6.556;2024-02-15T09:21:01;36.65;;;20.80;;
29358;SDS011;16347;53.232;6.556;2024-02-15T09:23:31;43.63;;;20.05;;
29358;SDS011;16347;53.232;6.556;2024-02-15T09:25:59;38.72;;;20.27;;
29358;SDS011;16347;53.232;6.556;2024-02-15T09:28:27;41.55;;;19.27;;
29358;SDS011;16347;53.232;6.556;2024-02-15T09:30:55;36.33;;;19.42;;
29358;SDS011;16347;53.232;6.556;2024-02-15T09:33:26;37.83;;;18.67;;
29358;SDS011;16347;53.232;6.556;2024-02-15T09:35:55;38.47;;;19.02;;
29358;SDS011;16347;53.232;6.556;2024-02-15T09:38:24;36.67;;;18.90;;
29358;SDS011;16347;53.232;6.556;2024-02-15T09:40:51;29.45;;;17.98;;
29358;SDS011;16347;53.232;6.556;2024-02-15T09:43:21;40.08;;;18.40;;
29358;SDS011;16347;53.232;6.556;2024-02-15T09:45:53;37.13;;;19.83;;
29358;SDS011;16347;53.232;6.556;2024-02-15T09:48:22;35.97;;;18.63;;
29358;SDS011;16347;53.232;6.556;2024-02-15T09:50:53;33.88;;;18.83;;
29358;SDS011;16347;53.232;6.556;2024-02-15T09:53:24;30.90;;;17.98;;
29358;SDS011;16347;53.232;6.556;2024-02-15T09:55:55;30.55;;;17.95;;
29358;SDS011;16347;53.232;6.556;2024-02-15T09:58:30;34.88;;;17.98;;
29358;SDS011;16347;53.232;6.556;2024-02-15T10:01:00;33.38;;;19.45;;
29358;SDS011;16347;53.232;6.556;2024-02-15T10:03:37;34.25;;;18.60;;
29358;SDS011;16347;53.232;6.556;2024-02-15T10:06:08;36.80;;;20.02;;
29358;SDS011;16347;53.232;6.556;2024-02-15T10:08:37;33.35;;;18.88;;
29358;SDS011;16347;53.232;6.556;2024-02-15T10:11:05;33.88;;;17.60;;
29358;SDS011;16347;53.232;6.556;2024-02-15T10:13:36;34.28;;;17.20;;
29358;SDS011;16347;53.232;6.556;2024-02-15T10:16:15;34.65;;;17.15;;
29358;SDS011;16347;53.232;6.556;2024-02-15T10:18:44;28.50;;;16.27;;
29358;SDS011;16347;53.232;6.556;2024-02-15T10:21:27;37.13;;;16.75;;
29358;SDS011;16347;53.232;6.556;2024-02-15T10:24:04;27.45;;;16.33;;
29358;SDS011;16347;53.232;6.556;2024-02-15T10:26:33;37.08;;;18.25;;
29358;SDS011;16347;53.232;6.556;2024-02-15T10:29:05;36.33;;;16.20;;
29358;SDS011;16347;53.232;6.556;2024-02-15T10:31:38;32.15;;;18.13;;
29358;SDS011;16347;53.232;6.556;2024-02-15T10:34:07;25.38;;;14.10;;
29358;SDS011;16347;53.232;6.556;2024-02-15T10:36:37;22.92;;;13.95;;
29358;SDS011;16347;53.232;6.556;2024-02-15T10:39:12;20.60;;;13.25;;
29358;SDS011;16347;53.232;6.556;2024-02-15T10:41:48;18.42;;;11.82;;
29358;SDS011;16347;53.232;6.556;2024-02-15T10:44:17;19.58;;;12.65;;
29358;SDS011;16347;53.232;6.556;2024-02-15T10:46:46;18.85;;;11.93;;
29358;SDS011;16347;53.232;6.556;2024-02-15T10:49:21;22.23;;;12.32;;
29358;SDS011;16347;53.232;6.556;2024-02-15T10:51:54;17.25;;;10.98;;
29358;SDS011;16347;53.232;6.556;2024-02-15T10:57:10;17.38;;;10.60;;
29358;SDS011;16347;53.232;6.556;2024-02-15T10:59:43;17.92;;;11.40;;
29358;SDS011;16347;53.232;6.556;2024-02-15T11:02:23;19.83;;;11.75;;
29358;SDS011;16347;53.232;6.556;2024-02-15T11:04:59;16.73;;;10.05;;
29358;SDS011;16347;53.232;6.556;2024-02-15T11:07:32;21.55;;;11.23;;
29358;SDS011;16347;53.232;6.556;2024-02-15T11:10:01;17.92;;;11.20;;
29358;SDS011;16347;53.232;6.556;2024-02-15T11:12:31;17.90;;;10.85;;
29358;SDS011;16347;53.232;6.556;2024-02-15T11:14:59;18.05;;;10.93;;
29358;SDS011;16347;53.232;6.556;2024-02-15T11:17:47;17.33;;;9.77;;
29358;SDS011;16347;53.232;6.556;2024-02-15T11:23:27;11.93;;;8.25;;
29358;SDS011;16347;53.232;6.556;2024-02-15T11:26:03;11.52;;;7.97;;
29358;SDS011;16347;53.232;6.556;2024-02-15T11:28:39;14.57;;;7.93;;
29358;SDS011;16347;53.232;6.556;2024-02-15T11:31:09;11.38;;;7.28;;
29358;SDS011;16347;53.232;6.556;2024-02-15T11:33:42;11.80;;;7.50;;
29358;SDS011;16347;53.232;6.556;2024-02-15T11:36:11;11.15;;;7.38;;
29358;SDS011;16347;53.232;6.556;2024-02-15T11:38:41;10.20;;;7.07;;
29358;SDS011;16347;53.232;6.556;2024-02-15T11:41:10;10.70;;;6.97;;
29358;SDS011;16347;53.232;6.556;2024-02-15T11:43:45;9.60;;;6.82;;
29358;SDS011;16347;53.232;6.556;2024-02-15T11:46:24;9.95;;;6.72;;
29358;SDS011;16347;53.232;6.556;2024-02-15T11:48:56;6.93;;;5.97;;
29358;SDS011;16347;53.232;6.556;2024-02-15T11:51:27;7.00;;;5.47;;
29358;SDS011;16347;53.232;6.556;2024-02-15T11:54:05;10.30;;;6.10;;
29358;SDS011;16347;53.232;6.556;2024-02-15T11:59:38;7.95;;;6.18;;
29358;SDS011;16347;53.232;6.556;2024-02-15T12:02:19;7.45;;;5.47;;
29358;SDS011;16347;53.232;6.556;2024-02-15T12:05:05;6.07;;;5.10;;
29358;SDS011;16347;53.232;6.556;2024-02-15T12:07:51;5.82;;;4.85;;
29358;SDS011;16347;53.232;6.556;2024-02-15T12:10:39;6.53;;;4.70;;
29358;SDS011;16347;53.232;6.556;2024-02-15T12:13:24;5.35;;;4.47;;
29358;SDS011;16347;53.232;6.556;2024-02-15T12:16:10;6.43;;;4.60;;
29358;SDS011;16347;53.232;6.556;2024-02-15T12:19:00;5.85;;;4.25;;
29358;SDS011;16347;53.232;6.556;2024-02-15T12:21:30;7.13;;;4.78;;
29358;SDS011;16347;53.232;6.556;2024-02-15T12:24:00;5.88;;;4.50;;
29358;SDS011;16347;53.232;6.556;2024-02-15T12:26:30;5.72;;;4.45;;
29358;SDS011;16347;53.232;6.556;2024-02-15T12:29:01;5.78;;;4.63;;
29358;SDS011;16347;53.232;6.556;2024-02-15T12:31:30;4.70;;;3.92;;
29358;SDS011;16347;53.232;6.556;2024-02-15T12:34:01;6.32;;;4.75;;
29358;SDS011;16347;53.232;6.556;2024-02-15T12:36:33;6.47;;;4.75;;
29358;SDS011;16347;53.232;6.556;2024-02-15T12:39:03;8.48;;;5.28;;
29358;SDS011;16347;53.232;6.556;2024-02-15T12:41:39;7.40;;;4.97;;
29358;SDS011;16347;53.232;6.556;2024-02-15T12:44:09;7.68;;;5.50;;
29358;SDS011;16347;53.232;6.556;2024-02-15T12:46:37;9.15;;;6.22;;
29358;SDS011;16347;53.232;6.556;2024-02-15T12:49:09;11.52;;;6.68;;
29358;SDS011;16347;53.232;6.556;2024-02-15T12:51:40;13.32;;;6.93;;
29358;SDS011;16347;53.232;6.556;2024-02-15T12:54:19;11.35;;;8.15;;
29358;SDS011;16347;53.232;6.556;2024-02-15T12:56:50;12.45;;;8.02;;
29358;SDS011;16347;53.232;6.556;2024-02-15T12:59:19;13.52;;;8.25;;
29358;SDS011;16347;53.232;6.556;2024-02-15T13:01:47;15.25;;;9.43;;
29358;SDS011;16347;53.232;6.556;2024-02-15T13:04:21;18.38;;;9.93;;
29358;SDS011;16347;53.232;6.556;2024-02-15T13:06:51;16.40;;;9.60;;
29358;SDS011;16347;53.232;6.556;2024-02-15T13:09:20;15.00;;;9.85;;
29358;SDS011;16347;53.232;6.556;2024-02-15T13:11:50;15.20;;;9.80;;
29358;SDS011;16347;53.232;6.556;2024-02-15T13:14:20;18.17;;;11.00;;
29358;SDS011;16347;53.232;6.556;2024-02-15T13:16:49;16.27;;;10.45;;
29358;SDS011;16347;53.232;6.556;2024-02-15T13:19:17;19.80;;;11.32;;
29358;SDS011;16347;53.232;6.556;2024-02-15T13:21:47;17.38;;;12.13;;
29358;SDS011;16347;53.232;6.556;2024-02-15T13:24:19;20.83;;;11.73;;
29358;SDS011;16347;53.232;6.556;2024-02-15T13:26:54;22.67;;;12.23;;
29358;SDS011;16347;53.232;6.556;2024-02-15T13:29:25;22.93;;;12.27;;
29358;SDS011;16347;53.232;6.556;2024-02-15T13:31:53;22.75;;;12.63;;
29358;SDS011;16347;53.232;6.556;2024-02-15T13:34:21;23.08;;;12.85;;
29358;SDS011;16347;53.232;6.556;2024-02-15T13:36:49;25.42;;;11.57;;
29358;SDS011;16347;53.232;6.556;2024-02-15T13:39:17;22.98;;;11.93;;
29358;SDS011;16347;53.232;6.556;2024-02-15T13:41:48;18.90;;;12.43;;
29358;SDS011;16347;53.232;6.556;2024-02-15T13:44:17;21.77;;;12.40;;
29358;SDS011;16347;53.232;6.556;2024-02-15T13:46:46;20.20;;;12.18;;
29358;SDS011;16347;53.232;6.556;2024-02-15T13:49:16;19.75;;;11.57;;
29358;SDS011;16347;53.232;6.556;2024-02-15T13:51:57;24.90;;;12.43;;
29358;SDS011;16347;53.232;6.556;2024-02-15T13:54:29;22.60;;;12.10;;
29358;SDS011;16347;53.232;6.556;2024-02-15T13:56:57;22.80;;;11.18;;
29358;SDS011;16347;53.232;6.556;2024-02-15T13:59:27;19.23;;;11.43;;
29358;SDS011;16347;53.232;6.556;2024-02-15T14:01:56;19.33;;;11.80;;
29358;SDS011;16347;53.232;6.556;2024-02-15T14:04:24;19.75;;;12.27;;
29358;SDS011;16347;53.232;6.556;2024-02-15T14:06:53;19.40;;;12.05;;
29358;SDS011;16347;53.232;6.556;2024-02-15T14:09:23;20.63;;;11.77;;
29358;SDS011;16347;53.232;6.556;2024-02-15T14:11:53;21.33;;;12.77;;
29358;SDS011;16347;53.232;6.556;2024-02-15T14:14:21;21.90;;;12.23;;
29358;SDS011;16347;53.232;6.556;2024-02-15T14:16:50;17.67;;;11.85;;
29358;SDS011;16347;53.232;6.556;2024-02-15T14:19:19;18.08;;;11.82;;
29358;SDS011;16347;53.232;6.556;2024-02-15T14:21:48;20.00;;;11.43;;
29358;SDS011;16347;53.232;6.556;2024-02-15T14:24:16;22.02;;;11.45;;
29358;SDS011;16347;53.232;6.556;2024-02-15T14:26:45;20.63;;;10.50;;
29358;SDS011;16347;53.232;6.556;2024-02-15T14:29:13;21.75;;;11.60;;
29358;SDS011;16347;53.232;6.556;2024-02-15T14:31:43;21.38;;;11.45;;
29358;SDS011;16347;53.232;6.556;2024-02-15T14:34:29;17.38;;;10.73;;
29358;SDS011;16347;53.232;6.556;2024-02-15T14:36:57;18.25;;;10.65;;
29358;SDS011;16347;53.232;6.556;2024-02-15T14:39:27;14.60;;;10.25;;
29358;SDS011;16347;53.232;6.556;2024-02-15T14:41:56;18.55;;;10.82;;
29358;SDS011;16347;53.232;6.556;2024-02-15T14:44:24;21.85;;;10.55;;
29358;SDS011;16347;53.232;6.556;2024-02-15T14:46:52;22.30;;;10.73;;
29358;SDS011;16347;53.232;6.556;2024-02-15T14:49:20;14.25;;;9.45;;
29358;SDS011;16347;53.232;6.556;2024-02-15T14:51:50;15.68;;;9.90;;
29358;SDS011;16347;53.232;6.556;2024-02-15T14:54:18;15.57;;;10.18;;